createdAt,value
2019-03-19T00:01:41.348Z,5.47
2019-03-19T00:04:10.269Z,4.12
2019-03-19T00:06:38.947Z,3.90
2019-03-19T00:09:08.315Z,4.35
2019-03-19T00:11:36.977Z,4.37
2019-03-19T00:14:06.004Z,4.30
2019-03-19T00:16:34.995Z,5.00
2019-03-19T00:19:04.115Z,6.10
2019-03-19T00:21:32.861Z,4.67
2019-03-19T00:24:01.795Z,5.55
2019-03-19T00:26:30.823Z,7.70
2019-03-19T00:28:59.509Z,5.08
2019-03-19T00:31:28.459Z,4.37
2019-03-19T00:33:57.179Z,5.03
2019-03-19T00:36:25.875Z,4.65
2019-03-19T00:38:54.596Z,3.85
2019-03-19T00:41:23.369Z,5.45
2019-03-19T00:43:54.498Z,8.90
2019-03-19T00:46:23.463Z,9.07
2019-03-19T00:48:52.455Z,9.45
2019-03-19T00:51:22.019Z,8.63
2019-03-19T00:53:51.011Z,9.15
2019-03-19T00:56:20.416Z,9.55
2019-03-19T00:58:49.457Z,7.70
2019-03-19T01:01:18.714Z,6.53
2019-03-19T01:03:47.421Z,6.22
2019-03-19T01:06:16.401Z,5.20
2019-03-19T01:08:45.385Z,5.67
2019-03-19T01:11:14.543Z,5.03
2019-03-19T01:13:43.224Z,3.75
2019-03-19T01:16:12.250Z,4.33
2019-03-19T01:18:41.241Z,4.90
2019-03-19T01:21:10.293Z,5.08
2019-03-19T01:23:39.009Z,4.30
2019-03-19T01:26:07.702Z,5.33
2019-03-19T01:28:36.645Z,4.37
2019-03-19T01:31:05.439Z,4.00
2019-03-19T01:33:34.430Z,4.70
2019-03-19T01:36:03.385Z,4.30
2019-03-19T01:38:32.064Z,4.25
2019-03-19T01:41:00.749Z,3.50
2019-03-19T01:43:29.443Z,3.37
2019-03-19T01:45:58.575Z,2.95
2019-03-19T01:48:27.266Z,3.70
2019-03-19T01:50:56.251Z,4.12
2019-03-19T01:53:24.977Z,3.00
2019-03-19T01:56:04.432Z,3.50
2019-03-19T01:58:24.088Z,3.15
2019-03-19T02:00:53.042Z,3.55
2019-03-19T02:03:21.729Z,3.35
2019-03-19T02:05:51.025Z,3.55
2019-03-19T02:08:19.715Z,3.65
2019-03-19T02:10:48.401Z,3.58
2019-03-19T02:13:17.090Z,4.53
2019-03-19T02:15:45.827Z,3.52
2019-03-19T02:18:14.760Z,3.22
2019-03-19T02:20:43.449Z,3.47
2019-03-19T02:23:12.154Z,3.55
2019-03-19T02:25:40.852Z,3.50
2019-03-19T02:28:09.818Z,5.12
2019-03-19T02:30:38.827Z,4.33
2019-03-19T02:33:07.496Z,4.22
2019-03-19T02:35:36.162Z,4.15
2019-03-19T02:38:04.909Z,3.87
2019-03-19T02:40:33.628Z,3.47
2019-03-19T02:43:02.287Z,3.75
2019-03-19T02:45:30.962Z,3.55
2019-03-19T02:48:00.011Z,3.67
2019-03-19T02:50:29.114Z,3.35
2019-03-19T02:52:57.793Z,3.62
2019-03-19T02:55:27.086Z,3.58
2019-03-19T02:57:55.761Z,3.45
2019-03-19T03:00:24.466Z,3.25
2019-03-19T03:02:53.151Z,3.92
2019-03-19T03:05:22.353Z,4.17
2019-03-19T03:07:51.024Z,3.92
2019-03-19T03:10:19.690Z,3.37
2019-03-19T03:12:48.704Z,3.87
2019-03-19T03:15:17.776Z,4.10
2019-03-19T03:17:46.431Z,3.75
2019-03-19T03:20:15.326Z,3.47
2019-03-19T03:22:44.164Z,3.25
2019-03-19T03:25:13.039Z,3.55
2019-03-19T03:27:41.760Z,3.55
2019-03-19T03:30:11.755Z,3.55
2019-03-19T03:32:40.450Z,3.80
2019-03-19T03:35:10.074Z,4.20
2019-03-19T03:37:39.061Z,4.03
2019-03-19T03:40:09.335Z,4.33
2019-03-19T03:42:38.084Z,4.00
2019-03-19T03:45:07.408Z,4.42
2019-03-19T03:47:36.453Z,4.40
2019-03-19T03:50:05.710Z,5.40
2019-03-19T03:52:34.367Z,4.17
2019-03-19T03:55:03.756Z,4.58
2019-03-19T03:57:32.734Z,4.95
2019-03-19T04:00:01.956Z,3.72
2019-03-19T04:02:30.716Z,5.05
2019-03-19T04:04:59.402Z,4.75
2019-03-19T04:07:28.088Z,4.83
2019-03-19T04:09:57.274Z,4.50
2019-03-19T04:12:25.952Z,4.65
2019-03-19T04:14:54.637Z,4.60
2019-03-19T04:17:23.568Z,4.25
2019-03-19T04:19:53.025Z,4.08
2019-03-19T04:22:24.346Z,4.75
2019-03-19T04:24:53.597Z,4.85
2019-03-19T04:27:22.341Z,4.50
2019-03-19T04:29:51.020Z,4.37
2019-03-19T04:32:20.270Z,4.33
2019-03-19T04:34:48.939Z,4.80
2019-03-19T04:37:17.636Z,4.62
2019-03-19T04:39:49.397Z,4.25
2019-03-19T04:42:18.085Z,5.05
2019-03-19T04:44:46.772Z,4.78
2019-03-19T04:47:15.758Z,4.95
2019-03-19T04:49:44.455Z,4.85
2019-03-19T04:52:13.485Z,5.45
2019-03-19T04:54:42.423Z,4.95
2019-03-19T04:57:11.116Z,5.12
2019-03-19T04:59:39.793Z,4.80
2019-03-19T05:02:08.498Z,6.65
2019-03-19T05:04:37.810Z,6.87
2019-03-19T05:07:06.487Z,6.08
2019-03-19T05:09:36.016Z,5.62
2019-03-19T05:12:04.692Z,5.75
2019-03-19T05:14:33.370Z,5.50
2019-03-19T05:17:02.344Z,5.37
2019-03-19T05:19:31.031Z,5.75
2019-03-19T05:22:00.024Z,6.12
2019-03-19T05:24:28.824Z,5.28
2019-03-19T05:26:57.517Z,5.45
2019-03-19T05:29:26.479Z,5.97
2019-03-19T05:31:55.788Z,6.15
2019-03-19T05:34:24.460Z,6.65
2019-03-19T05:36:53.462Z,6.37
2019-03-19T05:39:22.663Z,6.47
2019-03-19T05:41:51.370Z,7.00
2019-03-19T05:44:20.352Z,6.83
2019-03-19T05:46:49.334Z,6.42
2019-03-19T05:49:18.632Z,7.25
2019-03-19T05:51:47.631Z,6.72
2019-03-19T05:54:16.312Z,7.70
2019-03-19T05:56:45.022Z,7.78
2019-03-19T05:59:14.296Z,9.48
2019-03-19T06:01:43.255Z,9.28
2019-03-19T06:04:11.953Z,11.65
2019-03-19T06:06:40.660Z,8.03
2019-03-19T06:09:09.564Z,8.60
2019-03-19T06:11:38.514Z,9.65
2019-03-19T06:14:07.432Z,10.95
2019-03-19T06:16:36.112Z,8.30
2019-03-19T06:19:04.797Z,8.45
2019-03-19T06:21:33.793Z,8.60
2019-03-19T06:24:02.462Z,8.90
2019-03-19T06:26:31.643Z,7.37
2019-03-19T06:29:00.331Z,8.13
2019-03-19T06:31:29.036Z,8.35
2019-03-19T06:33:57.947Z,8.03
2019-03-19T06:36:26.613Z,8.33
2019-03-19T06:38:55.627Z,8.40
2019-03-19T06:41:24.471Z,9.50
2019-03-19T06:43:53.498Z,8.23
2019-03-19T06:46:22.497Z,9.58
2019-03-19T06:48:51.497Z,8.93
2019-03-19T06:51:20.243Z,9.53
2019-03-19T06:53:49.044Z,8.38
2019-03-19T06:56:17.744Z,9.03
2019-03-19T06:58:46.422Z,8.93
2019-03-19T07:01:17.388Z,9.53
2019-03-19T07:03:46.166Z,9.10
2019-03-19T07:06:15.100Z,11.15
2019-03-19T07:08:43.789Z,9.65
2019-03-19T07:11:12.840Z,9.33
2019-03-19T07:13:41.844Z,10.18
2019-03-19T07:16:10.823Z,9.60
2019-03-19T07:18:41.920Z,9.95
2019-03-19T07:21:10.889Z,10.03
2019-03-19T07:23:41.670Z,9.43
2019-03-19T07:26:10.355Z,9.18
2019-03-19T07:28:39.049Z,9.98
2019-03-19T07:31:07.747Z,10.03
2019-03-19T07:33:36.675Z,10.08
2019-03-19T07:36:06.390Z,10.10
2019-03-19T07:38:35.456Z,9.63
2019-03-19T07:41:04.438Z,9.83
2019-03-19T07:43:33.150Z,10.32
2019-03-19T07:46:01.835Z,11.00
2019-03-19T07:48:30.517Z,13.68
2019-03-19T07:50:59.895Z,12.53
2019-03-19T07:53:28.841Z,10.78
2019-03-19T07:55:57.880Z,10.53
2019-03-19T07:58:35.848Z,9.95
2019-03-19T08:00:57.292Z,10.43
2019-03-19T08:03:26.322Z,10.05
2019-03-19T08:05:55.284Z,11.20
2019-03-19T08:08:23.977Z,10.28
2019-03-19T08:10:52.638Z,12.33
2019-03-19T08:13:21.430Z,11.93
2019-03-19T08:15:50.097Z,12.75
2019-03-19T08:18:19.081Z,13.72
2019-03-19T08:20:48.323Z,12.93
2019-03-19T08:23:17.019Z,13.08
2019-03-19T08:25:45.947Z,12.65
2019-03-19T08:28:14.634Z,11.57
2019-03-19T08:30:43.353Z,11.85
2019-03-19T08:33:13.386Z,12.85
2019-03-19T08:35:42.382Z,11.68
2019-03-19T08:38:11.340Z,12.15
2019-03-19T08:40:40.364Z,11.65
2019-03-19T08:43:09.040Z,10.32
2019-03-19T08:45:37.709Z,10.72
2019-03-19T08:48:06.727Z,12.05
2019-03-19T08:50:35.436Z,11.40
2019-03-19T08:53:04.916Z,12.13
2019-03-19T08:55:34.040Z,11.63
2019-03-19T08:58:02.725Z,11.30
2019-03-19T09:00:31.789Z,11.12
2019-03-19T09:03:00.735Z,10.43
2019-03-19T09:05:29.427Z,10.13
2019-03-19T09:07:58.351Z,9.88
2019-03-19T09:10:27.354Z,9.88
2019-03-19T09:12:56.332Z,10.03
2019-03-19T09:15:25.341Z,10.13
2019-03-19T09:17:54.264Z,10.72
2019-03-19T09:20:23.084Z,9.83
2019-03-19T09:22:52.057Z,10.10
2019-03-19T09:25:21.105Z,10.15
2019-03-19T09:27:49.850Z,10.10
2019-03-19T09:30:18.887Z,9.35
2019-03-19T09:32:47.664Z,10.00
2019-03-19T09:35:16.429Z,9.93
2019-03-19T09:37:57.190Z,9.93
2019-03-19T09:40:15.750Z,9.18
2019-03-19T09:42:44.877Z,9.40
2019-03-19T09:45:14.505Z,9.03
2019-03-19T09:47:43.288Z,7.85
2019-03-19T09:50:13.482Z,7.47
2019-03-19T09:52:42.588Z,7.65
2019-03-19T09:55:11.663Z,7.22
2019-03-19T09:57:40.679Z,6.42
2019-03-19T10:00:15.403Z,5.55
2019-03-19T10:02:44.162Z,6.58
2019-03-19T10:05:13.190Z,6.83
2019-03-19T10:07:43.306Z,5.62
2019-03-19T10:10:13.759Z,5.70
2019-03-19T10:12:42.709Z,5.90
2019-03-19T10:15:11.555Z,4.37
2019-03-19T10:17:40.230Z,4.75
2019-03-19T10:20:11.368Z,4.85
2019-03-19T10:22:40.337Z,4.17
2019-03-19T10:25:10.120Z,3.55
2019-03-19T10:27:39.165Z,3.40
2019-03-19T10:30:12.227Z,3.85
2019-03-19T10:32:40.988Z,3.58
2019-03-19T10:35:10.343Z,3.27
2019-03-19T10:37:39.408Z,3.67
2019-03-19T10:40:08.163Z,2.90
2019-03-19T10:42:36.880Z,7.42
2019-03-19T10:45:06.094Z,3.10
2019-03-19T10:47:35.065Z,5.50
2019-03-19T10:50:04.632Z,4.53
2019-03-19T10:52:35.201Z,5.50
2019-03-19T10:55:04.354Z,3.75
2019-03-19T10:57:33.032Z,4.65
2019-03-19T11:00:16.360Z,3.98
2019-03-19T11:02:47.997Z,5.83
2019-03-19T11:05:16.906Z,5.15
2019-03-19T11:07:46.054Z,3.22
2019-03-19T11:10:15.262Z,4.45
2019-03-19T11:12:44.097Z,4.83
2019-03-19T11:15:14.823Z,3.30
2019-03-19T11:17:43.828Z,5.55
2019-03-19T11:20:14.642Z,6.33
2019-03-19T11:22:43.487Z,3.42
2019-03-19T11:25:13.542Z,3.62
2019-03-19T11:27:43.019Z,3.40
2019-03-19T11:30:15.048Z,3.05
2019-03-19T11:35:11.762Z,3.33
2019-03-19T11:37:40.436Z,2.60
2019-03-19T11:40:09.445Z,2.90
2019-03-19T11:42:38.148Z,2.80
2019-03-19T11:45:08.029Z,2.50
2019-03-19T11:47:36.702Z,4.37
2019-03-19T11:50:07.874Z,3.20
2019-03-19T11:52:36.835Z,3.50
2019-03-19T11:55:06.651Z,3.40
2019-03-19T11:57:35.642Z,2.40
2019-03-19T12:00:13.258Z,3.45
2019-03-19T12:02:42.231Z,2.60
2019-03-19T12:05:11.325Z,4.10
2019-03-19T12:07:40.075Z,2.77
2019-03-19T12:10:09.208Z,5.25
2019-03-19T12:12:38.200Z,3.67
2019-03-19T12:15:07.432Z,3.75
2019-03-19T12:17:36.437Z,3.45
2019-03-19T12:20:05.881Z,2.27
2019-03-19T12:22:34.561Z,2.65
2019-03-19T12:25:03.601Z,4.12
2019-03-19T12:27:32.547Z,3.08
2019-03-19T12:30:01.256Z,2.87
2019-03-19T12:32:29.924Z,2.80
2019-03-19T12:35:01.531Z,3.05
2019-03-19T12:37:30.068Z,4.07
2019-03-19T12:39:58.756Z,3.25
2019-03-19T12:42:27.438Z,3.62
2019-03-19T12:44:56.172Z,3.75
2019-03-19T12:47:25.117Z,2.08
2019-03-19T12:49:54.071Z,2.40
2019-03-19T12:52:23.111Z,1.55
2019-03-19T12:54:51.829Z,2.83
2019-03-19T12:57:20.784Z,3.27
2019-03-19T12:59:49.477Z,2.58
2019-03-19T13:02:20.640Z,2.95
2019-03-19T13:04:49.647Z,2.50
2019-03-19T13:07:18.328Z,2.77
2019-03-19T13:09:47.589Z,4.78
2019-03-19T13:12:16.364Z,2.27
2019-03-19T13:14:45.052Z,3.00
2019-03-19T13:17:14.167Z,2.77
2019-03-19T13:19:43.084Z,2.60
2019-03-19T13:22:12.651Z,2.85
2019-03-19T13:24:41.656Z,3.33
2019-03-19T13:27:10.339Z,3.50
2019-03-19T13:29:39.035Z,3.92
2019-03-19T13:32:07.740Z,2.80
2019-03-19T13:34:36.419Z,3.08
2019-03-19T13:37:05.130Z,2.90
2019-03-19T13:39:33.815Z,2.12
2019-03-19T13:42:03.435Z,4.15
2019-03-19T13:44:32.368Z,3.40
2019-03-19T13:47:01.060Z,3.20
2019-03-19T13:49:30.042Z,2.92
2019-03-19T13:51:58.742Z,4.47
2019-03-19T13:54:27.664Z,3.20
2019-03-19T13:56:56.428Z,2.42
2019-03-19T13:59:25.402Z,1.45
2019-03-19T14:01:54.208Z,2.65
2019-03-19T14:04:22.895Z,3.20
2019-03-19T14:06:52.179Z,3.47
2019-03-19T14:09:20.866Z,2.15
2019-03-19T14:11:49.805Z,2.85
2019-03-19T14:14:18.496Z,2.22
2019-03-19T14:16:47.509Z,1.98
2019-03-19T14:19:16.218Z,1.70
2019-03-19T14:21:44.931Z,1.57
2019-03-19T14:24:13.898Z,2.20
2019-03-19T14:26:42.886Z,2.52
2019-03-19T14:29:11.929Z,2.20
2019-03-19T14:31:40.625Z,2.12
2019-03-19T14:34:10.173Z,1.57
2019-03-19T14:36:38.858Z,2.30
2019-03-19T14:39:08.853Z,1.80
2019-03-19T14:41:37.547Z,1.65
2019-03-19T14:44:06.298Z,2.12
2019-03-19T14:46:34.988Z,1.90
2019-03-19T14:49:03.733Z,1.50
2019-03-19T14:51:32.438Z,1.85
2019-03-19T14:54:01.120Z,2.02
2019-03-19T14:56:29.959Z,2.37
2019-03-19T14:58:58.909Z,2.47
2019-03-19T15:01:27.944Z,2.00
2019-03-19T15:03:56.643Z,3.05
2019-03-19T15:06:25.626Z,1.80
2019-03-19T15:08:54.312Z,2.02
2019-03-19T15:11:23.365Z,1.70
2019-03-19T15:13:55.106Z,2.15
2019-03-19T15:16:23.073Z,2.47
2019-03-19T15:18:52.085Z,2.00
2019-03-19T15:21:21.038Z,2.83
2019-03-19T15:23:49.723Z,2.33
2019-03-19T15:26:18.713Z,2.35
2019-03-19T15:28:47.389Z,2.70
2019-03-19T15:31:16.060Z,1.77
2019-03-19T15:33:44.727Z,1.82
2019-03-19T15:36:13.395Z,1.82
2019-03-19T15:38:42.918Z,1.30
2019-03-19T15:41:11.635Z,2.55
2019-03-19T15:43:40.317Z,2.00
2019-03-19T15:46:09.024Z,2.60
2019-03-19T15:48:38.320Z,3.10
2019-03-19T15:51:07.075Z,2.33
2019-03-19T15:53:35.755Z,1.90
2019-03-19T15:56:04.454Z,2.08
2019-03-19T15:58:33.456Z,2.25
2019-03-19T16:01:02.137Z,2.50
2019-03-19T16:03:31.147Z,1.80
2019-03-19T16:06:00.149Z,1.72
2019-03-19T16:08:29.140Z,1.35
2019-03-19T16:10:59.821Z,1.37
2019-03-19T16:13:28.556Z,1.35
2019-03-19T16:15:57.252Z,1.77
2019-03-19T16:18:26.179Z,2.30
2019-03-19T16:20:55.231Z,1.47
2019-03-19T16:23:23.923Z,2.30
2019-03-19T16:25:52.913Z,2.22
2019-03-19T16:28:21.898Z,1.95
2019-03-19T16:30:50.582Z,1.77
2019-03-19T16:33:19.578Z,2.12
2019-03-19T16:36:03.614Z,2.85
2019-03-19T16:38:33.665Z,2.92
2019-03-19T16:41:02.542Z,2.83
2019-03-19T16:43:31.927Z,3.37
2019-03-19T16:46:00.849Z,2.70
2019-03-19T16:48:29.814Z,4.37
2019-03-19T16:50:58.478Z,2.05
2019-03-19T16:53:27.164Z,1.82
2019-03-19T16:55:56.089Z,1.75
2019-03-19T16:58:25.060Z,2.35
2019-03-19T17:00:53.735Z,2.80
2019-03-19T17:03:22.428Z,3.37
2019-03-19T17:05:51.512Z,2.52
2019-03-19T17:08:20.198Z,2.65
2019-03-19T17:10:49.415Z,2.00
2019-03-19T17:13:18.105Z,2.25
2019-03-19T17:15:47.091Z,2.65
2019-03-19T17:18:16.160Z,4.55
2019-03-19T17:20:45.070Z,5.15
2019-03-19T17:23:13.793Z,4.17
2019-03-19T17:25:42.512Z,4.67
2019-03-19T17:28:21.895Z,4.70
2019-03-19T17:30:42.019Z,4.92
2019-03-19T17:33:11.295Z,4.40
2019-03-19T17:35:40.563Z,4.22
2019-03-19T17:38:09.234Z,3.37
2019-03-19T17:40:41.618Z,2.40
2019-03-19T17:43:08.763Z,2.22
2019-03-19T17:45:39.556Z,2.42
2019-03-19T17:48:16.432Z,3.30
2019-03-19T17:50:43.948Z,6.10
2019-03-19T17:53:12.669Z,6.20
2019-03-19T17:55:41.714Z,5.50
2019-03-19T17:58:10.472Z,5.10
2019-03-19T18:00:40.741Z,5.62
2019-03-19T18:03:09.525Z,6.83
2019-03-19T18:05:38.232Z,6.65
2019-03-19T18:08:07.596Z,6.33
2019-03-19T18:10:36.360Z,6.78
2019-03-19T18:13:06.757Z,7.50
2019-03-19T18:15:35.642Z,7.53
2019-03-19T18:18:04.533Z,7.87
2019-03-19T18:20:33.491Z,20.25
2019-03-19T18:23:02.419Z,15.45
2019-03-19T18:25:31.135Z,11.33
2019-03-19T18:28:00.093Z,11.10
2019-03-19T18:30:28.795Z,9.48
2019-03-19T18:32:59.220Z,8.85
2019-03-19T18:35:28.178Z,8.63
2019-03-19T18:37:57.150Z,8.93
2019-03-19T18:40:25.868Z,8.83
2019-03-19T18:42:54.858Z,7.85
2019-03-19T18:45:23.589Z,7.87
2019-03-19T18:47:52.251Z,8.40
2019-03-19T18:50:21.029Z,8.48
2019-03-19T18:52:49.780Z,7.85
2019-03-19T18:55:18.725Z,7.12
2019-03-19T18:57:47.819Z,5.92
2019-03-19T19:00:16.894Z,5.58
2019-03-19T19:02:50.277Z,5.28
2019-03-19T19:05:16.186Z,10.30
2019-03-19T19:07:45.237Z,7.55
2019-03-19T19:10:14.095Z,5.92
2019-03-19T19:12:43.291Z,7.70
2019-03-19T19:15:13.627Z,7.97
2019-03-19T19:17:42.417Z,11.30
2019-03-19T19:20:11.764Z,11.43
2019-03-19T19:22:40.586Z,11.60
2019-03-19T19:25:11.516Z,9.28
2019-03-19T19:27:40.493Z,13.98
2019-03-19T19:30:12.584Z,7.35
2019-03-19T19:35:09.350Z,5.85
2019-03-19T19:37:38.060Z,7.80
2019-03-19T19:40:08.456Z,3.80
2019-03-19T19:42:37.409Z,5.08
2019-03-19T19:45:07.147Z,5.15
2019-03-19T19:47:36.058Z,5.05
2019-03-19T19:50:05.816Z,3.50
2019-03-19T19:52:34.760Z,2.33
2019-03-19T19:55:03.798Z,3.30
2019-03-19T19:57:32.575Z,3.17
2019-03-19T20:00:02.082Z,12.73
2019-03-19T20:02:31.141Z,5.70
2019-03-19T20:05:03.167Z,6.58
2019-03-19T20:07:30.239Z,12.50
2019-03-19T20:09:59.450Z,6.10
2019-03-19T20:12:28.239Z,4.95
2019-03-19T20:14:57.240Z,4.87
2019-03-19T20:17:27.140Z,5.42
2019-03-19T20:19:55.946Z,5.30
2019-03-19T20:22:24.957Z,8.58
2019-03-19T20:24:53.672Z,7.17
2019-03-19T20:27:22.364Z,6.90
2019-03-19T20:29:51.080Z,8.90
2019-03-19T20:32:19.850Z,10.60
2019-03-19T20:34:48.801Z,8.45
2019-03-19T20:37:17.739Z,7.05
2019-03-19T20:39:46.449Z,6.40
2019-03-19T20:42:15.409Z,6.65
2019-03-19T20:44:44.128Z,6.12
2019-03-19T20:47:12.803Z,5.97
2019-03-19T20:49:47.914Z,6.40
2019-03-19T20:52:14.453Z,5.95
2019-03-19T20:54:43.430Z,4.85
2019-03-19T20:57:12.127Z,5.12
2019-03-19T20:59:40.824Z,5.95
2019-03-19T21:02:09.518Z,7.50
2019-03-19T21:04:38.469Z,5.53
2019-03-19T21:07:07.426Z,4.60
2019-03-19T21:09:36.108Z,4.37
2019-03-19T21:12:05.124Z,7.50
2019-03-19T21:14:33.800Z,13.20
2019-03-19T21:17:02.483Z,13.32
2019-03-19T21:19:31.477Z,13.95
2019-03-19T21:22:00.723Z,13.58
2019-03-19T21:24:29.780Z,13.70
2019-03-19T21:26:58.750Z,13.13
2019-03-19T21:29:27.801Z,11.08
2019-03-19T21:31:56.793Z,14.47
2019-03-19T21:34:27.371Z,14.83
2019-03-19T21:36:56.462Z,14.95
2019-03-19T21:39:25.648Z,14.15
2019-03-19T21:41:54.851Z,14.53
2019-03-19T21:44:35.691Z,14.78
2019-03-19T21:47:05.797Z,8.03
2019-03-19T21:49:35.101Z,3.77
2019-03-19T21:52:04.308Z,5.67
2019-03-19T21:54:33.065Z,4.53
2019-03-19T21:57:01.916Z,3.80
2019-03-19T21:59:30.721Z,4.28
2019-03-19T22:02:00.020Z,4.15
2019-03-19T22:04:31.199Z,4.15
2019-03-19T22:07:00.032Z,3.50
2019-03-19T22:09:29.017Z,3.52
2019-03-19T22:11:59.534Z,4.08
2019-03-19T22:14:28.333Z,4.12
2019-03-19T22:16:57.069Z,4.67
2019-03-19T22:19:25.754Z,7.97
2019-03-19T22:21:54.538Z,6.78
2019-03-19T22:24:23.583Z,11.05
2019-03-19T22:26:52.665Z,21.12
2019-03-19T22:29:21.684Z,24.20
2019-03-19T22:31:50.784Z,8.35
2019-03-19T22:34:19.863Z,9.13
2019-03-19T22:36:48.576Z,6.83
2019-03-19T22:39:18.140Z,5.20
2019-03-19T22:41:46.909Z,4.08
2019-03-19T22:44:16.043Z,4.45
2019-03-19T22:46:45.116Z,5.60
2019-03-19T22:49:13.882Z,4.20
2019-03-19T22:51:42.637Z,16.73
2019-03-19T22:54:11.461Z,9.10
2019-03-19T22:56:40.581Z,7.70
2019-03-19T22:59:09.365Z,6.58
2019-03-19T23:01:38.294Z,10.25
2019-03-19T23:04:09.432Z,9.55
2019-03-19T23:06:39.244Z,11.13
2019-03-19T23:09:08.415Z,7.12
2019-03-19T23:11:37.201Z,5.70
2019-03-19T23:14:06.307Z,6.03
2019-03-19T23:16:35.015Z,6.28
2019-03-19T23:19:03.752Z,7.72
2019-03-19T23:21:32.518Z,6.17
2019-03-19T23:24:01.207Z,5.08
2019-03-19T23:26:30.337Z,4.22
2019-03-19T23:28:59.029Z,5.05
2019-03-19T23:31:28.092Z,4.95
2019-03-19T23:33:57.102Z,4.90
2019-03-19T23:36:26.772Z,4.87
2019-03-19T23:38:55.469Z,5.45
2019-03-19T23:41:25.212Z,5.20
2019-03-19T23:43:54.156Z,5.50
2019-03-19T23:46:23.197Z,6.58
2019-03-19T23:48:51.889Z,5.00
2019-03-19T23:51:21.180Z,4.62
2019-03-19T23:53:50.173Z,4.87
2019-03-19T23:56:19.577Z,4.97
2019-03-19T23:58:48.430Z,4.30
